Time;durP1;ratioP1;P1;durP2;ratioP2;P2;SDS_P1;SDS_P2;PMS_P1;PMS_P2;Temp;Humidity;BMP_temperature;BMP_pressure;BME280_temperature;BME280_humidity;BME280_pressure;Samples;Min_cycle;Max_cycle;Signal;HPM_P1;HPM_P2
2024/03/14 00:01:07;;;;;;;42.10;36.25;;;9.90;82.10;;;;;;4931686;28;113531;-53
2024/03/14 00:03:33;;;;;;;40.03;34.75;;;10.10;81.90;;;;;;4928048;28;112720;-50
2024/03/14 00:06:01;;;;;;;41.83;35.80;;;10.10;81.70;;;;;;4930765;28;113425;-50
2024/03/14 00:08:26;;;;;;;45.85;38.17;;;10.10;81.50;;;;;;4932447;28;113808;-50
2024/03/14 00:10:54;;;;;;;41.72;36.35;;;10.10;81.80;;;;;;4938375;28;112902;-52
2024/03/14 00:13:20;;;;;;;45.35;39.72;;;10.00;82.40;;;;;;4941069;28;112824;-52
2024/03/14 00:15:46;;;;;;;42.10;35.92;;;10.20;82.20;;;;;;4937174;28;113147;-50
2024/03/14 00:18:12;;;;;;;40.97;35.65;;;10.10;82.20;;;;;;4928793;28;113783;-50
2024/03/14 00:20:41;;;;;;;43.25;35.50;;;10.10;82.00;;;;;;4929955;28;112825;-51
2024/03/14 00:23:06;;;;;;;44.88;35.92;;;10.00;82.20;;;;;;4929642;28;112820;-50
2024/03/14 00:25:32;;;;;;;40.95;35.35;;;9.90;82.10;;;;;;4928714;28;115302;-50
2024/03/14 00:27:58;;;;;;;42.33;35.78;;;10.00;81.90;;;;;;4928695;28;113928;-51
2024/03/14 00:30:27;;;;;;;41.97;36.97;;;10.10;81.80;;;;;;4929603;28;112942;-50
2024/03/14 00:32:53;;;;;;;41.35;36.75;;;10.10;81.70;;;;;;4929912;28;112934;-52
2024/03/14 00:35:18;;;;;;;44.35;38.17;;;10.00;81.60;;;;;;4928238;28;114383;-53
2024/03/14 00:37:44;;;;;;;43.58;37.42;;;9.90;82.00;;;;;;4928331;28;113782;-53
2024/03/14 00:40:11;;;;;;;44.63;38.65;;;9.90;82.40;;;;;;4932507;28;112946;-52
2024/03/14 00:42:42;;;;;;;42.97;37.92;;;9.90;82.20;;;;;;4949295;28;112750;-51
2024/03/14 00:45:09;;;;;;;44.25;37.45;;;9.90;82.30;;;;;;4948188;28;113589;-52
2024/03/14 00:47:35;;;;;;;42.95;36.05;;;9.80;82.40;;;;;;4947731;28;113973;-51
2024/03/14 00:50:01;;;;;;;38.80;34.15;;;9.90;82.40;;;;;;4949188;28;113241;-50
2024/03/14 00:52:27;;;;;;;43.22;35.17;;;9.90;82.20;;;;;;4949229;28;112813;-49
2024/03/14 00:54:53;;;;;;;40.90;35.50;;;9.80;82.50;;;;;;4948138;28;113496;-49
2024/03/14 00:57:18;;;;;;;42.80;34.60;;;9.70;82.60;;;;;;4950503;28;113081;-50
2024/03/14 00:59:44;;;;;;;41.60;34.88;;;9.60;82.70;;;;;;4958384;28;112770;-53
2024/03/14 01:02:11;;;;;;;37.63;32.83;;;9.50;83.10;;;;;;4957038;28;112976;-53
2024/03/14 01:04:37;;;;;;;40.35;35.85;;;9.50;83.10;;;;;;4957928;28;113295;-50
2024/03/14 01:07:02;;;;;;;38.70;34.38;;;9.60;83.00;;;;;;4954256;28;112999;-52
2024/03/14 01:09:30;;;;;;;49.83;38.75;;;9.60;82.90;;;;;;4953669;28;112940;-53
2024/03/14 01:11:56;;;;;;;46.47;36.72;;;9.60;82.70;;;;;;4955720;28;113084;-50
2024/03/14 01:14:22;;;;;;;42.42;34.33;;;9.60;82.80;;;;;;4950427;28;113661;-50
2024/03/14 01:16:50;;;;;;;38.20;33.97;;;9.50;83.00;;;;;;4950156;28;113867;-52
2024/03/14 01:19:16;;;;;;;42.17;35.20;;;9.70;82.70;;;;;;4956387;28;112663;-53
2024/03/14 01:21:43;;;;;;;40.85;35.50;;;9.50;82.90;;;;;;4953340;28;112631;-49
2024/03/14 01:24:09;;;;;;;45.10;37.35;;;9.60;83.00;;;;;;4949423;28;114400;-52
2024/03/14 01:26:34;;;;;;;49.88;37.88;;;9.70;82.90;;;;;;4944516;28;113002;-52
2024/03/14 01:29:01;;;;;;;46.60;38.58;;;9.70;82.90;;;;;;4937946;28;112957;-55
2024/03/14 01:31:28;;;;;;;47.20;37.88;;;9.70;83.00;;;;;;4940688;28;112650;-51
2024/03/14 01:33:53;;;;;;;43.40;37.20;;;9.60;83.10;;;;;;4941632;28;113147;-51
2024/03/14 01:36:20;;;;;;;46.85;38.38;;;9.60;83.20;;;;;;4947257;28;114245;-51
2024/03/14 01:38:46;;;;;;;46.67;39.60;;;9.60;83.00;;;;;;4947705;28;112666;-51
2024/03/14 01:41:21;;;;;;;49.95;39.35;;;9.60;83.20;;;;;;4934659;28;112829;-51
2024/03/14 01:44:00;;;;;;;50.08;38.45;;;9.50;83.20;;;;;;4947215;28;115021;-51
2024/03/14 01:46:30;;;;;;;43.47;38.22;;;9.50;82.90;;;;;;4946873;28;113285;-52
2024/03/14 01:48:57;;;;;;;40.22;35.88;;;9.60;82.70;;;;;;4948185;28;112830;-52
2024/03/14 01:51:24;;;;;;;45.65;35.38;;;9.60;82.70;;;;;;4948135;28;112777;-52
2024/03/14 01:53:53;;;;;;;46.75;36.17;;;9.70;82.00;;;;;;4947286;28;113469;-52
2024/03/14 01:56:21;;;;;;;42.17;35.58;;;9.60;81.70;;;;;;4945029;28;112679;-51
2024/03/14 01:58:51;;;;;;;40.72;35.25;;;9.70;81.90;;;;;;4936537;28;112935;-54
2024/03/14 02:01:17;;;;;;;38.83;34.60;;;9.70;81.70;;;;;;4947683;28;112773;-52
2024/03/14 02:03:48;;;;;;;41.22;36.38;;;9.60;81.60;;;;;;4947044;28;113233;-52
2024/03/14 02:06:23;;;;;;;40.42;35.90;;;9.50;82.00;;;;;;4946839;28;113644;-52
2024/03/14 02:08:49;;;;;;;43.50;35.78;;;9.40;82.10;;;;;;4947940;28;112847;-52
2024/03/14 02:11:15;;;;;;;40.08;35.72;;;9.50;81.80;;;;;;4948214;28;112585;-52
2024/03/14 02:13:41;;;;;;;43.35;35.80;;;9.40;82.00;;;;;;4946464;28;114858;-52
2024/03/14 02:16:06;;;;;;;40.15;35.67;;;9.40;81.90;;;;;;4946795;28;114044;-51
2024/03/14 02:18:32;;;;;;;44.88;36.53;;;9.40;81.90;;;;;;4947864;28;112788;-52
2024/03/14 02:20:58;;;;;;;45.20;37.00;;;9.30;82.20;;;;;;4947965;28;113020;-51
2024/03/14 02:23:24;;;;;;;40.38;36.08;;;9.40;81.90;;;;;;4946681;28;113483;-54
2024/03/14 02:25:49;;;;;;;38.20;33.97;;;9.30;81.80;;;;;;4946115;28;113950;-51
2024/03/14 02:28:15;;;;;;;40.20;34.65;;;9.30;81.80;;;;;;4945377;28;113009;-53
2024/03/14 02:30:41;;;;;;;40.20;35.88;;;9.20;82.10;;;;;;4943827;28;112701;-52
2024/03/14 02:33:08;;;;;;;42.40;36.70;;;9.20;82.00;;;;;;4936854;28;113203;-51
2024/03/14 02:35:34;;;;;;;43.67;34.97;;;9.10;82.10;;;;;;4946294;28;113726;-51
2024/03/14 02:37:59;;;;;;;44.92;36.33;;;9.20;82.10;;;;;;4947046;28;112698;-52
2024/03/14 02:40:25;;;;;;;40.42;36.17;;;9.10;82.00;;;;;;4947532;28;113072;-51
2024/03/14 02:42:51;;;;;;;43.60;37.10;;;9.00;82.20;;;;;;4946445;28;114446;-51
2024/03/14 02:45:20;;;;;;;43.28;35.53;;;9.00;82.20;;;;;;4946542;28;112769;-51
2024/03/14 02:47:46;;;;;;;40.92;35.63;;;9.00;82.10;;;;;;4947030;28;112955;-51
2024/03/14 02:50:12;;;;;;;37.97;33.85;;;9.10;81.80;;;;;;4947438;28;113580;-52
2024/03/14 02:52:38;;;;;;;41.72;33.90;;;9.10;81.90;;;;;;4946151;28;113105;-51
2024/03/14 02:55:07;;;;;;;37.53;33.38;;;9.00;81.70;;;;;;4946380;28;113170;-51
2024/03/14 02:57:33;;;;;;;43.42;36.75;;;9.00;81.80;;;;;;4947083;28;112451;-51
2024/03/14 02:59:58;;;;;;;44.75;36.17;;;9.00;81.70;;;;;;4947192;28;112886;-51
2024/03/14 03:02:25;;;;;;;40.58;34.88;;;8.90;82.10;;;;;;4946327;28;113215;-51
2024/03/14 03:04:51;;;;;;;43.05;36.17;;;8.90;82.10;;;;;;4946097;28;113050;-52
2024/03/14 03:07:18;;;;;;;38.22;34.00;;;8.80;82.20;;;;;;4947360;28;112875;-52
2024/03/14 03:09:46;;;;;;;39.22;35.03;;;8.70;82.30;;;;;;4947546;28;112753;-51
2024/03/14 03:12:12;;;;;;;40.80;35.58;;;8.70;82.40;;;;;;4946264;28;113683;-51
2024/03/14 03:14:38;;;;;;;41.53;34.78;;;8.80;82.20;;;;;;4945649;28;112642;-52
2024/03/14 03:17:07;;;;;;;38.25;33.80;;;8.80;82.20;;;;;;4946979;28;112856;-51
2024/03/14 03:19:35;;;;;;;40.25;34.65;;;8.80;82.30;;;;;;4947134;28;112694;-52
2024/03/14 03:22:02;;;;;;;38.97;34.78;;;8.70;82.50;;;;;;4945992;28;113254;-51
2024/03/14 03:24:27;;;;;;;38.97;34.80;;;8.90;82.20;;;;;;4945905;28;114065;-50
2024/03/14 03:26:53;;;;;;;37.42;33.55;;;8.90;81.70;;;;;;4946709;28;114896;-51
2024/03/14 03:29:20;;;;;;;38.47;33.45;;;8.80;81.80;;;;;;4947182;28;112722;-52
2024/03/14 03:31:45;;;;;;;43.85;35.25;;;8.80;81.70;;;;;;4933855;28;113721;-52
2024/03/14 03:34:11;;;;;;;38.95;34.75;;;8.70;81.90;;;;;;4944625;28;112945;-51
2024/03/14 03:36:37;;;;;;;37.33;33.17;;;8.60;82.20;;;;;;4946726;28;112731;-52
2024/03/14 03:39:07;;;;;;;37.70;32.80;;;8.60;82.30;;;;;;4946412;28;113043;-51
2024/03/14 03:41:32;;;;;;;38.55;34.47;;;8.60;82.20;;;;;;4949184;28;113138;-51
2024/03/14 03:43:58;;;;;;;41.65;35.33;;;8.60;82.00;;;;;;4948925;28;114606;-52
2024/03/14 03:46:24;;;;;;;41.17;35.15;;;8.60;82.10;;;;;;4949995;28;112627;-51
2024/03/14 03:48:51;;;;;;;41.55;36.17;;;8.60;82.10;;;;;;4950332;28;112678;-51
2024/03/14 03:51:20;;;;;;;40.00;34.15;;;8.40;82.70;;;;;;4949059;28;113139;-52
2024/03/14 03:53:45;;;;;;;36.58;32.67;;;8.30;83.00;;;;;;4949119;28;112843;-51
2024/03/14 03:56:11;;;;;;;38.40;33.85;;;8.40;82.60;;;;;;4950075;28;112575;-51
2024/03/14 03:58:37;;;;;;;38.53;34.33;;;8.20;82.80;;;;;;4950162;28;112711;-54
2024/03/14 04:01:20;;;;;;;34.70;31.08;;;8.30;83.00;;;;;;4948855;28;113457;-52
2024/03/14 04:03:46;;;;;;;37.58;31.80;;;8.30;82.80;;;;;;4948732;28;114128;-52
2024/03/14 04:06:16;;;;;;;40.75;31.45;;;8.30;82.40;;;;;;4949673;28;112762;-51
2024/03/14 04:08:45;;;;;;;34.13;30.65;;;8.30;82.30;;;;;;4949777;28;113064;-52
2024/03/14 04:11:11;;;;;;;35.42;30.52;;;8.20;82.20;;;;;;4949215;28;113617;-52
2024/03/14 04:13:37;;;;;;;40.70;32.53;;;8.20;82.30;;;;;;4948809;28;112867;-54
2024/03/14 04:16:04;;;;;;;36.08;32.13;;;8.10;82.70;;;;;;4949210;28;113015;-51
2024/03/14 04:18:34;;;;;;;37.90;31.45;;;8.20;82.50;;;;;;4949467;28;114749;-51
2024/03/14 04:21:02;;;;;;;37.53;30.85;;;8.20;82.30;;;;;;4948585;28;114493;-51
2024/03/14 04:23:28;;;;;;;37.55;31.40;;;8.20;82.10;;;;;;4948509;28;112671;-52
2024/03/14 04:25:54;;;;;;;34.42;30.70;;;8.30;81.80;;;;;;4949373;28;112572;-52
2024/03/14 04:28:25;;;;;;;38.33;32.42;;;8.20;82.00;;;;;;4949147;28;113148;-52
2024/03/14 04:30:51;;;;;;;43.30;36.25;;;8.10;82.30;;;;;;4943510;28;113762;-54
2024/03/14 04:33:20;;;;;;;39.67;32.42;;;8.00;82.60;;;;;;4940091;28;112593;-52
2024/03/14 04:35:46;;;;;;;35.58;31.75;;;8.00;82.50;;;;;;4949346;28;112799;-52
2024/03/14 04:38:12;;;;;;;37.70;33.45;;;8.10;82.50;;;;;;4949431;28;113222;-52
2024/03/14 04:40:38;;;;;;;37.38;33.53;;;8.00;82.40;;;;;;4948079;28;114574;-52
2024/03/14 04:43:04;;;;;;;38.03;33.20;;;7.80;83.00;;;;;;4946561;28;114603;-55
2024/03/14 04:45:30;;;;;;;37.30;33.42;;;7.90;83.10;;;;;;4949202;28;112877;-52
2024/03/14 04:47:55;;;;;;;37.47;33.05;;;7.90;83.10;;;;;;4949326;28;112957;-51
2024/03/14 04:50:21;;;;;;;36.45;32.65;;;7.90;83.10;;;;;;4948325;28;113188;-51
2024/03/14 04:52:48;;;;;;;42.22;34.78;;;8.00;83.10;;;;;;4947171;28;112564;-52
2024/03/14 04:55:14;;;;;;;36.83;32.63;;;7.90;83.30;;;;;;4948987;28;112536;-52
2024/03/14 04:57:40;;;;;;;38.25;34.15;;;7.90;83.60;;;;;;4948748;28;112638;-51
2024/03/14 05:02:55;;;;;;;38.60;32.30;;;8.00;82.80;;;;;;4946180;28;112687;-51
2024/03/14 05:05:21;;;;;;;36.38;32.47;;;8.00;82.30;;;;;;4947472;28;112767;-54
2024/03/14 05:07:48;;;;;;;34.28;30.15;;;8.10;82.20;;;;;;4947768;28;113183;-52
2024/03/14 05:10:14;;;;;;;33.85;30.15;;;8.10;81.90;;;;;;4948244;28;114539;-54
2024/03/14 05:12:40;;;;;;;34.33;30.33;;;8.10;81.70;;;;;;4947935;28;112846;-52
2024/03/14 05:15:07;;;;;;;36.95;31.75;;;8.10;82.20;;;;;;4948484;28;112658;-53
2024/03/14 05:17:34;;;;;;;33.55;30.05;;;8.10;82.20;;;;;;4948497;28;112752;-51
2024/03/14 05:20:00;;;;;;;33.15;28.73;;;8.00;82.30;;;;;;4947713;28;113648;-53
2024/03/14 05:22:28;;;;;;;51.85;41.50;;;7.90;82.10;;;;;;4947920;28;112628;-51
2024/03/14 05:24:58;;;;;;;41.08;33.90;;;7.80;82.30;;;;;;4947897;28;112735;-51
2024/03/14 05:27:27;;;;;;;33.65;30.15;;;7.80;82.50;;;;;;4948610;28;112657;-52
2024/03/14 05:29:53;;;;;;;34.95;29.67;;;7.80;82.70;;;;;;4947327;28;113308;-51
2024/03/14 05:32:27;;;;;;;32.53;29.02;;;7.80;82.30;;;;;;4933816;28;112930;-52
2024/03/14 05:34:53;;;;;;;33.33;29.70;;;7.70;82.10;;;;;;4948378;28;112921;-51
2024/03/14 05:37:19;;;;;;;32.08;28.70;;;7.60;82.40;;;;;;4948196;28;112732;-52
2024/03/14 05:39:45;;;;;;;32.20;28.75;;;7.40;82.70;;;;;;4946903;28;114450;-51
2024/03/14 05:42:14;;;;;;;39.25;35.17;;;7.30;82.70;;;;;;4947023;28;114711;-54
2024/03/14 05:44:42;;;;;;;36.58;32.47;;;6.90;83.70;;;;;;4948181;28;112897;-54
2024/03/14 05:47:11;;;;;;;35.97;32.08;;;6.80;85.00;;;;;;4948227;28;112654;-51
2024/03/14 05:49:38;;;;;;;35.47;31.67;;;7.10;84.90;;;;;;4947249;28;113511;-52
2024/03/14 05:52:04;;;;;;;32.08;28.83;;;7.20;84.30;;;;;;4945724;28;113885;-51
2024/03/14 05:54:30;;;;;;;35.85;30.63;;;7.30;83.80;;;;;;4948016;28;112963;-53
2024/03/14 05:56:56;;;;;;;36.03;31.02;;;7.40;83.80;;;;;;4946943;28;113219;-52
2024/03/14 05:59:22;;;;;;;34.47;30.17;;;7.50;83.50;;;;;;4947234;28;113263;-51
2024/03/14 06:01:48;;;;;;;35.50;29.77;;;7.60;83.50;;;;;;4946919;28;113891;-53
2024/03/14 06:04:14;;;;;;;34.45;30.70;;;7.60;83.30;;;;;;4947915;28;112869;-53
2024/03/14 06:06:39;;;;;;;38.13;31.55;;;7.80;82.90;;;;;;4946251;28;112778;-52
2024/03/14 06:09:06;;;;;;;36.55;32.60;;;7.80;83.00;;;;;;4946987;28;113461;-53
2024/03/14 06:11:32;;;;;;;35.95;31.33;;;7.80;83.40;;;;;;4947380;28;113257;-52
2024/03/14 06:13:58;;;;;;;37.53;31.42;;;8.00;82.90;;;;;;4946404;28;113052;-52
2024/03/14 06:16:25;;;;;;;36.15;31.70;;;8.00;83.10;;;;;;4946559;28;112899;-51
2024/03/14 06:18:51;;;;;;;32.55;28.80;;;8.00;83.30;;;;;;4946516;28;115057;-52
2024/03/14 06:21:16;;;;;;;34.47;30.05;;;8.00;83.50;;;;;;4946607;28;114043;-52
2024/03/14 06:23:42;;;;;;;36.38;31.30;;;8.10;83.30;;;;;;4947937;28;113077;-52
2024/03/14 06:26:08;;;;;;;36.50;31.17;;;8.30;83.00;;;;;;4947789;28;112729;-51
2024/03/14 06:28:35;;;;;;;32.75;28.98;;;8.40;82.50;;;;;;4946551;28;113116;-51
2024/03/14 06:31:01;;;;;;;30.10;26.27;;;8.60;82.20;;;;;;4940083;28;112883;-52
2024/03/14 06:33:31;;;;;;;33.50;29.30;;;8.50;82.20;;;;;;4940133;28;112579;-52
2024/03/14 06:35:56;;;;;;;33.50;30.00;;;8.30;82.70;;;;;;4947403;28;112786;-51
2024/03/14 06:38:24;;;;;;;36.60;30.17;;;8.30;83.80;;;;;;4946453;28;113262;-51
2024/03/14 06:40:52;;;;;;;41.45;29.85;;;8.40;83.40;;;;;;4946178;28;114460;-52
2024/03/14 06:43:22;;;;;;;34.20;30.17;;;8.60;83.40;;;;;;4945988;28;113504;-52
2024/03/14 06:45:51;;;;;;;35.00;31.27;;;8.80;82.90;;;;;;4947244;28;112657;-51
2024/03/14 06:48:17;;;;;;;39.22;31.60;;;9.10;82.10;;;;;;4946523;28;113279;-52
2024/03/14 06:50:45;;;;;;;34.58;30.95;;;9.30;82.00;;;;;;4946335;28;112850;-52
2024/03/14 06:53:11;;;;;;;36.95;32.83;;;9.40;81.50;;;;;;4947174;28;112484;-52
2024/03/14 06:55:37;;;;;;;36.13;31.88;;;9.60;81.00;;;;;;4947403;28;113954;-51
2024/03/14 06:58:03;;;;;;;34.70;30.73;;;9.70;80.40;;;;;;4946256;28;113278;-52
2024/03/14 07:00:29;;;;;;;33.95;30.33;;;9.90;80.30;;;;;;4946450;28;113018;-52
2024/03/14 07:02:55;;;;;;;31.67;28.38;;;10.10;79.90;;;;;;4946774;28;112932;-51
2024/03/14 07:05:23;;;;;;;30.63;27.30;;;10.20;79.10;;;;;;4947421;28;113132;-52
2024/03/14 07:07:49;;;;;;;32.25;28.02;;;10.50;78.70;;;;;;4945971;28;113806;-54
2024/03/14 07:10:16;;;;;;;31.95;28.40;;;10.50;78.90;;;;;;4946621;28;113110;-52
2024/03/14 07:12:48;;;;;;;31.10;27.85;;;10.60;78.00;;;;;;4947258;28;112537;-52
2024/03/14 07:15:17;;;;;;;31.58;28.13;;;10.80;77.90;;;;;;4935600;28;112675;-52
2024/03/14 07:17:43;;;;;;;31.65;28.33;;;10.80;77.80;;;;;;4943336;28;113504;-56
2024/03/14 07:20:09;;;;;;;31.10;27.65;;;10.80;78.50;;;;;;4936758;28;112613;-52
2024/03/14 07:22:39;;;;;;;31.70;28.58;;;10.90;77.90;;;;;;4930734;28;112929;-51
2024/03/14 07:25:08;;;;;;;33.50;29.27;;;11.00;78.10;;;;;;4930664;28;113243;-52
2024/03/14 07:27:36;;;;;;;32.38;28.88;;;11.10;77.70;;;;;;4929651;28;113231;-51
2024/03/14 07:30:04;;;;;;;33.88;29.95;;;11.00;78.00;;;;;;4929721;28;114322;-51
2024/03/14 07:32:31;;;;;;;32.05;28.60;;;11.20;77.20;;;;;;4941740;28;112636;-52
2024/03/14 07:34:57;;;;;;;31.88;28.45;;;11.20;76.80;;;;;;4950470;28;113194;-52
2024/03/14 07:37:25;;;;;;;36.55;28.70;;;11.30;75.80;;;;;;4948981;28;114557;-52
2024/03/14 07:39:54;;;;;;;31.98;27.15;;;11.30;75.90;;;;;;4949103;28;113187;-52
2024/03/14 07:42:20;;;;;;;33.30;27.08;;;11.50;75.10;;;;;;4935314;28;112600;-52
2024/03/14 07:44:45;;;;;;;32.85;26.58;;;11.90;74.80;;;;;;4931745;28;112851;-54
2024/03/14 07:47:23;;;;;;;29.30;26.13;;;12.00;74.20;;;;;;4934743;28;114545;-52
2024/03/14 07:49:57;;;;;;;30.30;27.10;;;12.20;73.80;;;;;;4933854;28;113136;-51
2024/03/14 07:52:23;;;;;;;30.35;26.13;;;12.10;72.40;;;;;;4940782;28;112778;-51
2024/03/14 07:54:49;;;;;;;30.63;27.35;;;12.10;73.30;;;;;;4936403;28;112762;-53
2024/03/14 07:57:15;;;;;;;33.45;27.38;;;11.90;74.20;;;;;;4943089;28;114244;-51
2024/03/14 07:59:44;;;;;;;32.97;27.83;;;12.10;73.10;;;;;;4930238;28;115445;-52
2024/03/14 08:02:11;;;;;;;35.88;29.75;;;12.30;73.50;;;;;;4938899;28;112756;-52
2024/03/14 08:04:38;;;;;;;36.75;30.23;;;12.60;73.10;;;;;;4935374;28;112704;-53
2024/03/14 08:07:17;;;;;;;46.78;35.33;;;12.90;73.50;;;;;;4939764;28;113792;-51
2024/03/14 08:09:44;;;;;;;52.08;37.78;;;13.20;73.30;;;;;;4932440;28;114143;-51
2024/03/14 08:12:10;;;;;;;54.15;40.40;;;13.10;73.90;;;;;;4931212;28;112691;-52
2024/03/14 08:14:36;;;;;;;55.15;39.90;;;12.80;74.20;;;;;;4932445;28;112866;-52
2024/03/14 08:17:13;;;;;;;60.08;41.85;;;13.10;74.40;;;;;;4940620;28;113350;-54
2024/03/14 08:19:45;;;;;;;56.85;40.95;;;13.20;74.20;;;;;;4941175;28;113761;-52
2024/03/14 08:22:10;;;;;;;56.72;39.15;;;13.00;73.90;;;;;;4940074;28;112650;-52
2024/03/14 08:24:42;;;;;;;59.92;41.55;;;13.30;73.40;;;;;;4944142;28;114050;-52
2024/03/14 08:27:12;;;;;;;60.10;40.67;;;13.40;72.50;;;;;;4941570;28;113970;-53
2024/03/14 08:29:39;;;;;;;67.20;43.40;;;13.00;73.70;;;;;;4942458;28;113950;-53
2024/03/14 08:32:06;;;;;;;64.10;42.42;;;13.30;72.80;;;;;;4933680;28;112753;-53
2024/03/14 08:34:34;;;;;;;65.72;43.05;;;13.10;73.20;;;;;;4929476;28;112905;-52
2024/03/14 08:37:00;;;;;;;71.35;43.60;;;13.00;73.20;;;;;;4946318;28;113225;-52
2024/03/14 08:39:28;;;;;;;68.03;43.67;;;12.90;74.40;;;;;;4928318;28;112675;-55
2024/03/14 08:41:54;;;;;;;69.53;43.83;;;12.80;74.70;;;;;;4934334;28;112822;-52
2024/03/14 08:44:27;;;;;;;70.50;44.92;;;13.00;74.10;;;;;;4933492;28;112725;-53
2024/03/14 08:46:58;;;;;;;72.75;46.92;;;12.90;74.90;;;;;;4936717;28;114529;-52
2024/03/14 08:49:23;;;;;;;81.32;49.08;;;12.60;75.90;;;;;;4932169;28;112976;-52
2024/03/14 08:51:49;;;;;;;81.47;47.72;;;12.30;77.20;;;;;;4935999;28;113774;-52
2024/03/14 08:56:47;;;;;;;78.95;49.20;;;12.20;78.10;;;;;;4934208;28;113121;-51
2024/03/14 08:59:14;;;;;;;82.85;49.70;;;12.40;78.20;;;;;;4933040;28;112557;-52
2024/03/14 09:01:40;;;;;;;85.72;49.20;;;12.70;76.90;;;;;;4935924;28;113040;-52
2024/03/14 09:04:05;;;;;;;83.88;50.63;;;12.60;77.30;;;;;;4934229;28;113136;-52
2024/03/14 09:06:33;;;;;;;79.65;49.95;;;12.50;77.50;;;;;;4936832;28;113265;-52
2024/03/14 09:09:04;;;;;;;94.75;52.38;;;12.90;76.80;;;;;;4930643;28;112865;-52
2024/03/14 09:11:32;;;;;;;88.20;50.40;;;12.80;76.90;;;;;;4937619;28;113032;-52
2024/03/14 09:13:58;;;;;;;86.18;50.97;;;12.80;77.00;;;;;;4931480;28;113021;-52
2024/03/14 09:16:26;;;;;;;84.05;48.80;;;12.50;77.30;;;;;;4937731;28;114481;-52
2024/03/14 09:18:52;;;;;;;83.63;48.72;;;12.50;78.00;;;;;;4930399;28;113808;-52
2024/03/14 09:21:19;;;;;;;82.43;50.35;;;12.60;77.60;;;;;;4937670;28;112764;-52
2024/03/14 09:23:45;;;;;;;75.88;47.05;;;12.80;77.50;;;;;;4932535;28;112682;-54
2024/03/14 09:26:11;;;;;;;74.78;45.63;;;12.60;77.80;;;;;;4939426;28;114360;-52
2024/03/14 09:28:43;;;;;;;70.63;43.53;;;12.70;77.80;;;;;;4929626;28;114032;-53
2024/03/14 09:31:09;;;;;;;65.97;43.63;;;12.30;78.70;;;;;;4932778;28;112795;-52
2024/03/14 09:33:37;;;;;;;68.88;44.53;;;12.40;78.50;;;;;;4942223;28;113100;-56
2024/03/14 09:36:04;;;;;;;70.07;45.60;;;12.30;78.70;;;;;;4941398;28;113261;-52
2024/03/14 09:38:33;;;;;;;68.43;45.25;;;12.10;79.10;;;;;;4937027;28;112839;-52
2024/03/14 09:40:59;;;;;;;75.10;46.00;;;12.40;79.80;;;;;;4935538;28;113392;-54
2024/03/14 09:43:25;;;;;;;77.78;47.03;;;12.30;79.20;;;;;;4934479;28;113006;-52
2024/03/14 09:45:54;;;;;;;68.35;45.20;;;12.60;78.50;;;;;;4933085;28;113518;-52
2024/03/14 09:48:20;;;;;;;74.28;46.53;;;12.50;79.60;;;;;;4933013;28;113100;-52
2024/03/14 09:50:51;;;;;;;63.20;42.70;;;12.30;79.30;;;;;;4934155;28;113201;-51
2024/03/14 09:53:20;;;;;;;72.38;42.70;;;12.40;79.70;;;;;;4934564;28;112746;-52
2024/03/14 09:55:46;;;;;;;65.07;41.50;;;12.10;79.70;;;;;;4932694;28;114898;-51
2024/03/14 09:58:14;;;;;;;62.53;41.15;;;12.10;80.90;;;;;;4933386;28;113901;-53
2024/03/14 10:00:40;;;;;;;64.28;41.30;;;12.30;80.00;;;;;;4936917;28;114839;-52
2024/03/14 10:03:07;;;;;;;58.33;37.97;;;12.30;80.20;;;;;;4934695;28;113074;-54
2024/03/14 10:05:35;;;;;;;55.88;38.17;;;12.40;80.40;;;;;;4930951;28;113718;-55
2024/03/14 10:08:02;;;;;;;63.97;40.00;;;12.40;79.70;;;;;;4936364;28;113769;-54
2024/03/14 10:10:33;;;;;;;61.95;40.22;;;12.20;80.30;;;;;;4938375;28;113013;-52
2024/03/14 10:12:59;;;;;;;57.03;37.67;;;12.10;80.60;;;;;;4938989;28;113145;-53
2024/03/14 10:15:25;;;;;;;53.55;35.95;;;12.30;80.80;;;;;;4942496;28;114357;-52
2024/03/14 10:17:51;;;;;;;47.45;34.15;;;12.60;80.20;;;;;;4943548;28;113677;-52
2024/03/14 10:20:20;;;;;;;48.78;34.28;;;12.60;79.70;;;;;;4941572;28;113318;-52
2024/03/14 10:22:48;;;;;;;47.95;33.58;;;12.40;80.20;;;;;;4942819;28;112992;-53
2024/03/14 10:25:17;;;;;;;47.20;31.75;;;12.40;80.30;;;;;;4940032;28;114533;-52
2024/03/14 10:27:48;;;;;;;51.95;32.40;;;12.40;80.70;;;;;;4943397;28;113956;-56
2024/03/14 10:30:17;;;;;;;52.20;35.40;;;12.50;81.00;;;;;;4941204;28;114211;-51
2024/03/14 10:32:46;;;;;;;48.53;32.63;;;12.50;80.80;;;;;;4934547;28;113382;-54
2024/03/14 10:35:14;;;;;;;51.05;32.47;;;12.80;80.20;;;;;;4944853;28;113167;-52
2024/03/14 10:37:41;;;;;;;44.38;31.60;;;12.90;80.00;;;;;;4927080;28;112710;-52
2024/03/14 10:40:28;;;;;;;51.30;33.65;;;12.90;80.10;;;;;;4928959;28;112980;-52
2024/03/14 10:42:54;;;;;;;49.45;32.35;;;12.80;79.90;;;;;;4929060;28;112546;-52
2024/03/14 10:45:21;;;;;;;57.28;33.50;;;12.90;80.30;;;;;;4925628;28;114623;-52
2024/03/14 10:47:50;;;;;;;53.05;33.65;;;13.00;79.60;;;;;;4928506;28;113409;-52
2024/03/14 10:50:17;;;;;;;55.83;35.17;;;13.10;79.60;;;;;;4935343;28;113314;-53
2024/03/14 10:52:46;;;;;;;51.88;35.08;;;13.10;79.60;;;;;;4936238;28;113020;-52
2024/03/14 10:55:15;;;;;;;49.97;34.22;;;13.20;79.00;;;;;;4931882;28;113956;-53
2024/03/14 10:57:41;;;;;;;49.83;34.08;;;13.10;79.70;;;;;;4936669;28;113955;-52
2024/03/14 11:00:25;;;;;;;54.35;34.55;;;13.30;79.40;;;;;;4933905;28;112780;-53
2024/03/14 11:02:52;;;;;;;50.53;34.17;;;13.40;79.50;;;;;;4933888;28;112973;-52
2024/03/14 11:05:22;;;;;;;48.65;34.00;;;13.40;79.00;;;;;;4934459;28;113285;-53
2024/03/14 11:07:53;;;;;;;50.75;34.65;;;13.40;78.70;;;;;;4937266;28;114116;-52
2024/03/14 11:10:27;;;;;;;47.85;33.60;;;13.30;79.40;;;;;;4931943;28;113126;-52
2024/03/14 11:13:00;;;;;;;44.97;32.47;;;13.90;78.30;;;;;;4933791;28;112763;-52
2024/03/14 11:15:27;;;;;;;43.13;32.45;;;13.80;78.30;;;;;;4936316;28;113269;-53
2024/03/14 11:17:59;;;;;;;44.20;31.10;;;13.90;78.30;;;;;;4939665;28;113429;-51
2024/03/14 11:20:32;;;;;;;44.53;33.33;;;14.00;78.20;;;;;;4936402;28;112808;-51
2024/03/14 11:23:02;;;;;;;43.22;34.03;;;14.40;76.90;;;;;;4940870;28;112895;-51
2024/03/14 11:25:32;;;;;;;44.35;34.15;;;14.20;76.90;;;;;;4934206;28;113935;-51
2024/03/14 11:27:58;;;;;;;41.00;32.55;;;15.40;74.80;;;;;;4932035;28;113786;-51
2024/03/14 11:30:25;;;;;;;33.95;29.58;;;16.20;71.20;;;;;;4933074;28;113081;-51
2024/03/14 11:32:58;;;;;;;38.83;32.33;;;17.30;68.20;;;;;;4934871;28;113011;-54
2024/03/14 11:35:44;;;;;;;38.08;33.13;;;17.30;67.00;;;;;;4945150;28;114360;-51
2024/03/14 11:38:15;;;;;;;41.28;32.40;;;17.50;66.80;;;;;;4940495;28;114184;-52
2024/03/14 11:40:42;;;;;;;39.50;31.83;;;18.00;65.00;;;;;;4941883;28;112568;-52
2024/03/14 11:43:15;;;;;;;36.63;30.23;;;19.20;62.10;;;;;;4938624;28;112727;-52
2024/03/14 11:45:42;;;;;;;40.70;32.58;;;20.00;59.70;;;;;;4940473;28;113284;-51
2024/03/14 11:48:10;;;;;;;35.25;29.92;;;20.60;57.20;;;;;;4938374;28;112708;-51
2024/03/14 11:50:38;;;;;;;34.50;30.80;;;20.60;56.80;;;;;;4939609;28;113398;-52
2024/03/14 11:53:06;;;;;;;37.35;33.35;;;21.30;56.00;;;;;;4929304;28;113300;-53
2024/03/14 11:55:32;;;;;;;38.45;33.95;;;21.00;55.70;;;;;;4936932;28;114407;-53
2024/03/14 11:57:58;;;;;;;38.90;33.28;;;21.00;55.10;;;;;;4926369;28;113759;-52
2024/03/14 12:00:27;;;;;;;36.63;32.40;;;21.40;55.10;;;;;;4942637;28;112553;-52
2024/03/14 12:02:53;;;;;;;40.22;35.92;;;21.10;56.00;;;;;;4932995;28;115174;-51
2024/03/14 12:05:23;;;;;;;38.05;33.97;;;21.80;54.50;;;;;;4942566;28;114859;-51
2024/03/14 12:07:54;;;;;;;39.90;35.67;;;21.90;53.90;;;;;;4942280;28;112862;-52
2024/03/14 12:10:22;;;;;;;38.73;34.83;;;21.50;54.40;;;;;;4943464;28;112907;-52
2024/03/14 12:12:51;;;;;;;39.42;35.25;;;21.30;55.40;;;;;;4944491;28;112801;-52
2024/03/14 12:15:17;;;;;;;40.55;36.30;;;21.90;54.40;;;;;;4940655;28;113318;-50
2024/03/14 12:17:44;;;;;;;40.05;35.97;;;21.60;53.10;;;;;;4943660;28;114022;-51
2024/03/14 12:20:12;;;;;;;40.42;36.22;;;21.50;54.30;;;;;;4939925;28;113205;-52
2024/03/14 12:22:46;;;;;;;40.83;36.63;;;21.90;53.80;;;;;;4929853;28;112853;-53
2024/03/14 12:25:14;;;;;;;39.85;35.60;;;22.80;51.70;;;;;;4929079;28;113690;-51
2024/03/14 12:27:44;;;;;;;39.92;35.90;;;22.00;53.20;;;;;;4928527;28;113732;-51
2024/03/14 12:30:10;;;;;;;39.15;35.05;;;21.60;54.50;;;;;;4929605;28;112668;-52